Time;durP1;ratioP1;P1;durP2;ratioP2;P2;SDS_P1;SDS_P2;PMS_P1;PMS_P2;Temp;Humidity;BMP_temperature;BMP_pressure;BME280_temperature;BME280_humidity;BME280_pressure;Samples;Min_cycle;Max_cycle;Signal;HPM_P1;HPM_P2
2021/09/09 00:01:04;;;;;;;;;;;;;;;19.66;61.29;99416.97;5054182;28;20028;-63
2021/09/09 00:03:57;;;;;;;;;;;;;;;19.66;61.28;99411.72;5053606;28;19975;-63
2021/09/09 00:06:46;;;;;;;;;;;;;;;19.65;61.33;99407.38;5054108;28;20006;-63
2021/09/09 00:09:39;;;;;;;;;;;;;;;19.65;61.31;99396.00;5053758;28;19928;-63
2021/09/09 00:12:31;;;;;;;;;;;;;;;19.64;61.00;99395.13;5054163;28;19959;-64
2021/09/09 00:15:24;;;;;;;;;;;;;;;19.64;61.17;99389.88;5054136;28;19928;-64
2021/09/09 00:18:17;;;;;;;;;;;;;;;19.63;61.34;99391.63;5067782;28;19975;-64
2021/09/09 00:21:01;;;;;;;;;;;;;;;19.63;61.11;99386.38;5053656;28;19982;-64
2021/09/09 00:23:45;;;;;;;;;;;;;;;19.62;61.16;99379.41;5054172;28;19927;-64
2021/09/09 00:26:34;;;;;;;;;;;;;;;19.63;61.17;99390.78;5054499;28;20006;-64
2021/09/09 00:29:24;;;;;;;;;;;;;;;19.62;60.96;99382.03;5053722;28;19963;-64
2021/09/09 00:32:16;;;;;;;;;;;;;;;19.63;61.15;99370.59;5054308;28;19932;-64
2021/09/09 00:35:11;;;;;;;;;;;;;;;19.63;61.03;99372.41;5052743;28;19927;-65
2021/09/09 00:38:02;;;;;;;;;;;;;;;19.63;61.13;99362.72;5053016;28;20360;-64
2021/09/09 00:40:57;;;;;;;;;;;;;;;19.63;61.24;99365.34;5053275;28;19927;-64
2021/09/09 00:43:49;;;;;;;;;;;;;;;19.62;61.01;99366.25;5054178;28;19967;-62
2021/09/09 00:46:36;;;;;;;;;;;;;;;19.64;61.30;99368.84;5054606;28;19928;-63
2021/09/09 00:49:20;;;;;;;;;;;;;;;19.64;61.22;99363.59;5053539;28;19928;-64
2021/09/09 00:52:04;;;;;;;;;;;;;;;19.65;61.42;99359.19;5054291;28;19955;-64
2021/09/09 00:54:54;;;;;;;;;;;;;;;19.63;61.16;99354.00;5053533;28;19931;-63
2021/09/09 00:57:46;;;;;;;;;;;;;;;19.62;61.42;99347.88;5067518;28;20070;-63
2021/09/09 01:00:35;;;;;;;;;;;;;;;19.64;61.46;99350.47;5053200;28;20276;-63
2021/09/09 01:03:25;;;;;;;;;;;;;;;19.62;61.46;99342.59;5053109;28;20034;-62
2021/09/09 01:06:18;;;;;;;;;;;;;;;19.62;61.36;99352.28;5052737;28;20446;-63
2021/09/09 01:09:08;;;;;;;;;;;;;;;19.61;61.26;99346.16;5053085;28;20015;-63
2021/09/09 01:12:03;;;;;;;;;;;;;;;19.61;61.15;99347.94;5052905;28;19928;-63
2021/09/09 01:14:52;;;;;;;;;;;;;;;19.61;61.51;99340.91;5053027;28;20295;-63
2021/09/09 01:17:37;;;;;;;;;;;;;;;19.61;61.32;99345.28;5053207;28;19928;-62
2021/09/09 01:20:21;;;;;;;;;;;;;;;19.60;61.34;99340.94;5053421;28;19928;-64
2021/09/09 01:23:10;;;;;;;;;;;;;;;19.60;61.40;99348.84;5053370;28;19928;-64
2021/09/09 01:26:03;;;;;;;;;;;;;;;19.59;61.37;99347.13;5052288;28;19928;-64
2021/09/09 01:28:55;;;;;;;;;;;;;;;19.58;61.54;99329.63;5053059;28;19932;-64
2021/09/09 01:31:44;;;;;;;;;;;;;;;19.58;61.46;99337.50;5052819;28;19975;-64
2021/09/09 01:34:40;;;;;;;;;;;;;;;19.58;61.51;99341.00;5052579;28;19947;-64
2021/09/09 01:37:32;;;;;;;;;;;;;;;19.57;61.54;99335.78;5053513;28;19927;-64
2021/09/09 01:40:31;;;;;;;;;;;;;;;19.56;61.41;99336.69;5052588;28;20027;-64
2021/09/09 01:43:21;;;;;;;;;;;;;;;19.55;61.58;99343.72;5052710;28;20126;-63
2021/09/09 01:46:05;;;;;;;;;;;;;;;19.53;61.37;99342.06;5053184;28;20284;-62
2021/09/09 01:48:49;;;;;;;;;;;;;;;19.53;61.39;99342.06;5057646;28;19935;-63
2021/09/09 01:51:36;;;;;;;;;;;;;;;19.52;61.56;99341.19;5057885;28;19928;-63
2021/09/09 01:54:28;;;;;;;;;;;;;;;19.51;61.51;99344.72;5057544;28;20020;-65
2021/09/09 01:57:20;;;;;;;;;;;;;;;19.48;61.44;99344.81;5056297;28;20414;-63
2021/09/09 02:00:12;;;;;;;;;;;;;;;19.48;61.48;99357.97;5056486;28;19927;-62
2021/09/09 02:03:03;;;;;;;;;;;;;;;19.44;61.38;99343.22;5056820;28;19927;-63
2021/09/09 02:05:55;;;;;;;;;;;;;;;19.42;61.34;99348.50;5057153;28;19927;-62
2021/09/09 02:08:47;;;;;;;;;;;;;;;19.42;61.45;99345.88;5056286;28;19966;-62
2021/09/09 02:11:40;;;;;;;;;;;;;;;19.40;61.34;99344.22;5057071;28;19982;-64
2021/09/09 02:14:24;;;;;;;;;;;;;;;19.38;61.35;99349.53;5056947;28;19927;-64
2021/09/09 02:17:09;;;;;;;;;;;;;;;19.38;61.37;99346.91;5057300;28;19984;-63
2021/09/09 02:19:58;;;;;;;;;;;;;;;19.37;61.39;99346.94;5056548;28;19944;-63
2021/09/09 02:22:53;;;;;;;;;;;;;;;19.36;61.30;99340.84;5055406;28;20022;-63
2021/09/09 02:25:46;;;;;;;;;;;;;;;19.36;61.55;99342.59;5056145;28;19927;-64
2021/09/09 02:28:38;;;;;;;;;;;;;;;19.36;61.33;99339.97;5057205;28;19944;-64
2021/09/09 02:31:28;;;;;;;;;;;;;;;19.37;61.30;99336.44;5055740;28;20031;-64
2021/09/09 02:34:23;;;;;;;;;;;;;;;19.37;61.38;99342.56;5056120;28;19932;-63
2021/09/09 02:37:15;;;;;;;;;;;;;;;19.38;61.27;99339.03;5055566;28;19970;-63
2021/09/09 02:40:07;;;;;;;;;;;;;;;19.39;61.36;99339.88;5055712;28;19928;-64
2021/09/09 02:42:51;;;;;;;;;;;;;;;19.39;61.41;99332.84;5055785;28;19970;-62
2021/09/09 02:45:35;;;;;;;;;;;;;;;19.38;61.23;99328.53;5056214;28;20311;-63
2021/09/09 02:48:19;;;;;;;;;;;;;;;19.38;61.34;99328.53;5056678;28;19963;-64
2021/09/09 02:51:08;;;;;;;;;;;;;;;19.38;61.30;99323.25;5056462;28;20337;-63
2021/09/09 02:53:55;;;;;;;;;;;;;;;19.39;61.46;99329.38;5056828;28;20387;-63
2021/09/09 02:56:42;;;;;;;;;;;;;;;19.38;61.49;99331.16;5056381;28;19970;-63
2021/09/09 02:59:34;;;;;;;;;;;;;;;19.38;61.41;99327.63;5055306;28;19928;-63
2021/09/09 03:02:27;;;;;;;;;;;;;;;19.36;61.57;99327.69;5055163;28;19931;-64
2021/09/09 03:05:17;;;;;;;;;;;;;;;19.35;61.39;99323.34;5055800;28;20287;-64
2021/09/09 03:08:09;;;;;;;;;;;;;;;19.33;61.48;99317.28;5054975;28;20002;-65
2021/09/09 03:11:01;;;;;;;;;;;;;;;19.32;61.43;99318.19;5055947;28;20058;-64
2021/09/09 03:13:45;;;;;;;;;;;;;;;19.32;61.60;99319.03;5055078;28;19927;-63
2021/09/09 03:16:41;;;;;;;;;;;;;;;19.33;61.64;99325.16;5056183;28;20268;-63
2021/09/09 03:19:33;;;;;;;;;;;;;;;19.31;61.41;99330.44;5055474;28;19927;-62
2021/09/09 03:22:26;;;;;;;;;;;;;;;19.30;61.44;99336.63;5054874;28;19927;-63
2021/09/09 03:25:18;;;;;;;;;;;;;;;19.30;61.54;99336.63;5055877;28;19967;-63
2021/09/09 03:28:11;;;;;;;;;;;;;;;19.28;61.59;99338.44;5054736;28;19928;-64
2021/09/09 03:31:00;;;;;;;;;;;;;;;19.27;61.64;99336.72;5054419;28;20006;-64
2021/09/09 03:33:50;;;;;;;;;;;;;;;19.25;61.48;99341.16;5054782;28;20326;-63
2021/09/09 03:36:42;;;;;;;;;;;;;;;19.21;61.58;99343.94;5054569;28;20414;-63
2021/09/09 03:39:26;;;;;;;;;;;;;;;19.22;61.57;99348.28;5054752;28;19976;-64
2021/09/09 03:42:10;;;;;;;;;;;;;;;19.21;61.75;99346.56;5055036;28;19928;-63
2021/09/09 03:45:02;;;;;;;;;;;;;;;19.22;61.76;99341.25;5055493;28;19927;-64
2021/09/09 03:47:51;;;;;;;;;;;;;;;19.21;61.68;99343.94;5054171;28;20015;-64
2021/09/09 03:50:46;;;;;;;;;;;;;;;19.18;61.68;99347.50;5054669;28;19927;-64
2021/09/09 03:53:37;;;;;;;;;;;;;;;19.20;61.63;99342.22;5054329;28;19928;-64
2021/09/09 03:56:26;;;;;;;;;;;;;;;19.21;61.76;99344.78;5054349;28;20386;-64
2021/09/09 03:59:21;;;;;;;;;;;;;;;19.20;61.73;99340.44;5055217;28;20371;-63
2021/09/09 04:02:14;;;;;;;;;;;;;;;19.20;61.71;99337.81;5055319;28;19927;-63
2021/09/09 04:05:02;;;;;;;;;;;;;;;19.19;61.86;99336.09;5054351;28;20414;-63
2021/09/09 04:07:48;;;;;;;;;;;;;;;19.16;61.76;99342.31;5054060;28;19927;-63
2021/09/09 04:10:40;;;;;;;;;;;;;;;19.17;61.75;99340.53;5067747;28;19927;-63
2021/09/09 04:13:33;;;;;;;;;;;;;;;19.19;61.90;99335.25;5053803;28;20296;-64
2021/09/09 04:16:23;;;;;;;;;;;;;;;19.19;61.71;99345.75;5055088;28;19970;-64
2021/09/09 04:19:16;;;;;;;;;;;;;;;19.17;61.91;99353.66;5054023;28;20447;-64
2021/09/09 04:22:09;;;;;;;;;;;;;;;19.15;61.63;99348.47;5054529;28;19996;-64
2021/09/09 04:25:02;;;;;;;;;;;;;;;19.15;61.69;99358.13;5053889;28;19927;-64
2021/09/09 04:27:52;;;;;;;;;;;;;;;19.12;61.92;99348.56;5053661;28;20024;-64
2021/09/09 04:30:42;;;;;;;;;;;;;;;19.13;61.84;99345.03;5053413;28;20333;-64
2021/09/09 04:33:26;;;;;;;;;;;;;;;19.13;61.84;99349.44;5053514;28;19983;-64
2021/09/09 04:36:18;;;;;;;;;;;;;;;19.11;62.00;99344.22;5055115;28;20016;-64
2021/09/09 04:39:10;;;;;;;;;;;;;;;19.10;61.93;99336.38;5053475;28;20287;-64
2021/09/09 04:41:58;;;;;;;;;;;;;;;19.09;61.93;99342.53;5054423;28;20026;-64
2021/09/09 04:44:50;;;;;;;;;;;;;;;19.08;61.94;99339.03;5053697;28;19928;-64
2021/09/09 04:47:36;;;;;;;;;;;;;;;19.08;62.04;99330.31;5053122;28;20403;-64
2021/09/09 04:50:27;;;;;;;;;;;;;;;19.08;62.08;99331.16;5053635;28;19945;-64
2021/09/09 04:53:19;;;;;;;;;;;;;;;19.08;62.00;99330.31;5053787;28;19928;-64
2021/09/09 04:56:14;;;;;;;;;;;;;;;19.07;62.18;99324.22;5053163;28;19971;-64
2021/09/09 04:58:58;;;;;;;;;;;;;;;19.09;62.07;99332.03;5053326;28;20363;-64
2021/09/09 05:01:45;;;;;;;;;;;;;;;19.08;62.17;99327.69;5054078;28;19927;-64
2021/09/09 05:04:38;;;;;;;;;;;;;;;19.07;62.11;99318.97;5053098;28;19928;-64
2021/09/09 05:07:30;;;;;;;;;;;;;;;19.08;62.12;99325.06;5067201;28;19928;-64
2021/09/09 05:10:22;;;;;;;;;;;;;;;19.08;62.24;99325.06;5052761;28;19971;-63
2021/09/09 05:13:12;;;;;;;;;;;;;;;19.08;62.21;99325.06;5053135;28;19974;-63
2021/09/09 05:16:04;;;;;;;;;;;;;;;19.09;62.22;99326.78;5052863;28;19928;-63
2021/09/09 05:18:54;;;;;;;;;;;;;;;19.08;62.22;99327.69;5052850;28;19947;-63
2021/09/09 05:21:44;;;;;;;;;;;;;;;19.07;62.17;99329.47;5052169;28;19928;-63
2021/09/09 05:24:36;;;;;;;;;;;;;;;19.06;62.18;99327.75;5053078;28;20101;-63
2021/09/09 05:27:20;;;;;;;;;;;;;;;19.06;62.24;99319.00;5053216;28;19928;-64
2021/09/09 05:30:09;;;;;;;;;;;;;;;19.05;62.40;99323.41;5053717;28;19928;-64
2021/09/09 05:33:02;;;;;;;;;;;;;;;19.04;62.30;99326.94;5052579;28;19970;-64
2021/09/09 05:35:55;;;;;;;;;;;;;;;19.06;62.46;99330.38;5052683;28;19971;-64
2021/09/09 05:38:44;;;;;;;;;;;;;;;19.05;62.38;99326.03;5052844;28;20346;-64
2021/09/09 05:41:36;;;;;;;;;;;;;;;19.05;62.54;99328.66;5052408;28;19932;-63
2021/09/09 05:44:28;;;;;;;;;;;;;;;19.06;62.50;99326.88;5052442;28;19928;-64
2021/09/09 05:47:21;;;;;;;;;;;;;;;19.05;62.44;99323.41;5052392;28;19931;-64
2021/09/09 05:50:05;;;;;;;;;;;;;;;19.05;62.76;99328.66;5052658;28;19990;-64
2021/09/09 05:52:49;;;;;;;;;;;;;;;19.05;62.69;99328.66;5053305;28;19981;-64
2021/09/09 05:55:39;;;;;;;;;;;;;;;19.05;62.70;99326.03;5053118;28;19974;-64
2021/09/09 05:58:32;;;;;;;;;;;;;;;19.05;62.87;99320.78;5053099;28;19974;-64
2021/09/09 06:01:24;;;;;;;;;;;;;;;19.08;62.86;99330.31;5052962;28;20027;-64
2021/09/09 06:04:10;;;;;;;;;;;;;;;19.07;62.96;99326.84;5052104;28;20300;-64
2021/09/09 06:06:59;;;;;;;;;;;;;;;19.08;62.89;99331.16;5052680;28;20438;-64
2021/09/09 06:09:52;;;;;;;;;;;;;;;19.07;63.10;99329.47;5053479;28;19928;-64
2021/09/09 06:12:45;;;;;;;;;;;;;;;19.08;63.03;99339.03;5052714;28;19966;-63
2021/09/09 06:15:37;;;;;;;;;;;;;;;19.10;62.91;99336.38;5053263;28;19931;-63
2021/09/09 06:18:21;;;;;;;;;;;;;;;19.10;62.99;99334.59;5052547;28;19928;-63
2021/09/09 06:21:16;;;;;;;;;;;;;;;19.12;63.21;99337.19;5052574;28;19928;-63
2021/09/09 06:24:06;;;;;;;;;;;;;;;19.11;63.06;99331.06;5052723;28;19927;-63
2021/09/09 06:26:58;;;;;;;;;;;;;;;19.14;63.13;99341.50;5052339;28;20009;-63
2021/09/09 06:29:48;;;;;;;;;;;;;;;19.14;63.25;99344.13;5051725;28;19966;-63
2021/09/09 06:32:40;;;;;;;;;;;;;;;19.14;63.29;99352.00;5052271;28;20371;-63
2021/09/09 06:35:30;;;;;;;;;;;;;;;19.14;63.49;99349.38;5055453;28;20317;-63
2021/09/09 06:38:22;;;;;;;;;;;;;;;19.13;63.45;99360.78;5056947;28;20287;-63
2021/09/09 06:41:14;;;;;;;;;;;;;;;19.15;63.48;99364.22;5055806;28;19927;-63
2021/09/09 06:44:01;;;;;;;;;;;;;;;19.14;63.59;99366.91;5055605;28;19931;-63
2021/09/09 06:46:48;;;;;;;;;;;;;;;19.15;63.68;99360.75;5056786;28;19968;-62
2021/09/09 06:49:38;;;;;;;;;;;;;;;19.16;63.65;99370.31;5056206;28;20402;-63
2021/09/09 06:52:27;;;;;;;;;;;;;;;19.15;63.70;99361.59;5055066;28;19987;-63
2021/09/09 06:55:23;;;;;;;;;;;;;;;19.16;63.73;99360.69;5056514;28;19928;-63
2021/09/09 06:58:15;;;;;;;;;;;;;;;19.16;63.90;99365.94;5055651;28;19942;-63
2021/09/09 07:01:01;;;;;;;;;;;;;;;19.19;63.90;99364.97;5056737;28;19986;-64
2021/09/09 07:03:54;;;;;;;;;;;;;;;19.21;63.92;99365.78;5055069;28;19991;-64
2021/09/09 07:06:46;;;;;;;;;;;;;;;19.21;64.11;99362.31;5054827;28;20011;-64
2021/09/09 07:09:41;;;;;;;;;;;;;;;19.23;64.25;99360.53;5055069;28;19983;-64
2021/09/09 07:12:28;;;;;;;;;;;;;;;19.23;64.27;99358.75;5055083;28;20314;-64
2021/09/09 07:15:12;;;;;;;;;;;;;;;19.27;64.38;99354.25;5056520;28;19935;-64
2021/09/09 07:17:56;;;;;;;;;;;;;;;19.29;64.42;99360.31;5055613;28;19928;-64
2021/09/09 07:20:48;;;;;;;;;;;;;;;19.31;64.40;99361.13;5056050;28;19927;-63
2021/09/09 07:23:40;;;;;;;;;;;;;;;19.33;64.40;99354.06;5054894;28;19928;-64
2021/09/09 07:26:32;;;;;;;;;;;;;;;19.37;64.49;99365.31;5055400;28;20015;-63
2021/09/09 07:29:27;;;;;;;;;;;;;;;19.36;64.61;99364.47;5056050;28;20384;-63
2021/09/09 07:32:19;;;;;;;;;;;;;;;19.39;64.47;99372.25;5054318;28;20312;-63
2021/09/09 07:35:12;;;;;;;;;;;;;;;19.40;64.81;99375.75;5055053;28;20337;-63
2021/09/09 07:38:07;;;;;;;;;;;;;;;19.42;64.73;99379.19;5055910;28;19943;-63
2021/09/09 07:40:51;;;;;;;;;;;;;;;19.42;64.97;99374.78;5054915;28;20009;-63
2021/09/09 07:43:39;;;;;;;;;;;;;;;19.44;64.89;99367.72;5054504;28;20356;-63
2021/09/09 07:46:33;;;;;;;;;;;;;;;19.46;64.99;99368.53;5054820;28;19927;-63
2021/09/09 07:49:28;;;;;;;;;;;;;;;19.49;65.07;99372.81;5053965;28;19928;-64
2021/09/09 07:52:23;;;;;;;;;;;;;;;19.51;65.08;99384.16;5054482;28;19998;-64
2021/09/09 07:55:19;;;;;;;;;;;;;;;19.55;65.31;99385.78;5054855;28;19928;-63
2021/09/09 07:58:12;;;;;;;;;;;;;;;19.58;65.35;99385.69;5054228;28;19927;-62
2021/09/09 08:01:04;;;;;;;;;;;;;;;19.60;65.30;99377.75;5068393;28;19928;-63
2021/09/09 08:03:57;;;;;;;;;;;;;;;19.62;65.21;99378.56;5054082;28;19928;-63
2021/09/09 08:06:42;;;;;;;;;;;;;;;19.66;65.27;99371.44;5054383;28;19947;-63
2021/09/09 08:09:26;;;;;;;;;;;;;;;19.68;65.33;99386.25;5054507;28;20471;-63
2021/09/09 08:12:18;;;;;;;;;;;;;;;19.71;65.45;99391.38;5055081;28;19927;-64
2021/09/09 08:15:10;;;;;;;;;;;;;;;19.73;65.31;99397.47;5053746;28;20030;-64
2021/09/09 08:18:02;;;;;;;;;;;;;;;19.75;65.34;99398.28;5054721;28;19927;-64
2021/09/09 08:20:54;;;;;;;;;;;;;;;19.77;65.35;99398.25;5053951;28;19975;-64
2021/09/09 08:23:46;;;;;;;;;;;;;;;19.79;65.44;99404.28;5053535;28;19928;-64
2021/09/09 08:26:39;;;;;;;;;;;;;;;19.80;65.38;99403.38;5053524;28;19928;-64
2021/09/09 08:29:31;;;;;;;;;;;;;;;19.82;65.29;99404.19;5053855;28;19927;-64
2021/09/09 08:32:20;;;;;;;;;;;;;;;19.83;65.37;99407.69;5053847;28;20391;-64
2021/09/09 08:35:05;;;;;;;;;;;;;;;19.85;65.59;99411.16;5053864;28;19928;-62
2021/09/09 08:37:49;;;;;;;;;;;;;;;19.86;65.74;99425.97;5053564;28;19931;-63
2021/09/09 08:40:40;;;;;;;;;;;;;;;19.88;65.63;99416.31;5054186;28;19992;-63
2021/09/09 08:43:33;;;;;;;;;;;;;;;19.87;65.77;99420.72;5053421;28;19927;-64
2021/09/09 08:46:25;;;;;;;;;;;;;;;19.89;65.88;99421.53;5053325;28;19971;-64
2021/09/09 08:49:19;;;;;;;;;;;;;;;19.89;65.84;99423.28;5053727;28;19971;-64
2021/09/09 08:52:11;;;;;;;;;;;;;;;19.90;66.00;99427.66;5053332;28;19928;-64
2021/09/09 08:55:03;;;;;;;;;;;;;;;19.90;65.90;99432.91;5053367;28;19928;-64
2021/09/09 08:57:59;;;;;;;;;;;;;;;19.90;65.98;99431.16;5052767;28;19978;-63
2021/09/09 09:01:02;;;;;;;;;;;;;;;19.91;65.97;99434.63;5053302;28;20415;-63
2021/09/09 09:03:49;;;;;;;;;;;;;;;19.92;66.23;99439.84;5053893;28;20272;-62
2021/09/09 09:06:34;;;;;;;;;;;;;;;19.94;66.06;99434.53;5053848;28;19927;-63
2021/09/09 09:09:21;;;;;;;;;;;;;;;19.96;65.98;99434.47;5053132;28;20433;-63
2021/09/09 09:12:11;;;;;;;;;;;;;;;19.99;66.10;99430.00;5053030;28;19928;-64
2021/09/09 09:15:13;;;;;;;;;;;;;;;20.02;66.03;99435.13;5053023;28;20441;-64
2021/09/09 09:18:02;;;;;;;;;;;;;;;20.06;65.97;99435.91;5053679;28;19935;-65
2021/09/09 09:20:52;;;;;;;;;;;;;;;20.10;65.99;99436.66;5053228;28;20327;-65
2021/09/09 09:23:44;;;;;;;;;;;;;;;20.14;66.03;99446.19;5052931;28;19998;-64
2021/09/09 09:26:34;;;;;;;;;;;;;;;20.16;66.03;99447.84;5052853;28;19978;-64
2021/09/09 09:29:28;;;;;;;;;;;;;;;20.20;66.03;99443.31;5053076;28;19927;-64
2021/09/09 09:32:21;;;;;;;;;;;;;;;20.23;66.12;99449.38;5052699;28;19931;-63
2021/09/09 09:35:17;;;;;;;;;;;;;;;20.26;66.06;99439.63;5052896;28;19967;-63
2021/09/09 09:38:08;;;;;;;;;;;;;;;20.28;66.08;99436.06;5052781;28;19927;-63
2021/09/09 09:40:54;;;;;;;;;;;;;;;20.30;66.09;99434.22;5052784;28;19971;-62
2021/09/09 09:43:59;;;;;;;;;;;;;;;20.33;65.88;99439.38;5053235;28;19936;-63
2021/09/09 09:46:46;;;;;;;;;;;;;;;20.36;66.21;99435.78;5052786;28;19974;-64
2021/09/09 09:49:31;;;;;;;;;;;;;;;20.38;66.23;99433.97;5053115;28;19986;-63
2021/09/09 09:52:24;;;;;;;;;;;;;;;20.40;66.27;99434.75;5052884;28;19970;-63
2021/09/09 09:55:11;;;;;;;;;;;;;;;20.44;66.19;99432.91;5053731;28;19932;-63
2021/09/09 09:58:03;;;;;;;;;;;;;;;20.45;66.36;99430.19;5052555;28;20401;-64
2021/09/09 10:00:56;;;;;;;;;;;;;;;20.48;66.28;99426.59;5052310;28;19927;-63
2021/09/09 10:03:41;;;;;;;;;;;;;;;20.52;66.40;99436.09;5052152;28;19927;-62
2021/09/09 10:06:25;;;;;;;;;;;;;;;20.53;66.32;99425.53;5052362;28;19967;-64
2021/09/09 10:09:09;;;;;;;;;;;;;;;20.56;66.37;99432.47;5057410;28;19931;-64
2021/09/09 10:11:59;;;;;;;;;;;;;;;20.57;66.47;99428.03;5056533;28;19966;-64
2021/09/09 10:14:54;;;;;;;;;;;;;;;20.60;66.44;99433.22;5056130;28;19971;-64
2021/09/09 10:17:55;;;;;;;;;;;;;;;20.64;66.43;99429.56;5055929;28;19931;-65
2021/09/09 10:20:46;;;;;;;;;;;;;;;20.66;66.42;99430.38;5055887;28;19927;-65
2021/09/09 10:23:39;;;;;;;;;;;;;;;20.66;66.34;99433.00;5055691;28;20375;-64
2021/09/09 10:26:34;;;;;;;;;;;;;;;20.67;66.48;99453.16;5056496;28;19928;-65
2021/09/09 10:29:53;;;;;;;;;;;;;;;20.68;66.54;99436.44;5056378;28;19931;-65
2021/09/09 10:32:38;;;;;;;;;;;;;;;20.71;66.46;99435.47;5023813;28;19927;-63
2021/09/09 10:35:26;;;;;;;;;;;;;;;20.72;66.60;99435.41;5056793;28;19927;-63
2021/09/09 10:38:19;;;;;;;;;;;;;;;20.75;66.53;99435.31;5056102;28;19973;-64
2021/09/09 10:41:06;;;;;;;;;;;;;;;20.77;66.59;99438.78;5055737;28;19943;-64
2021/09/09 10:43:56;;;;;;;;;;;;;;;20.78;66.72;99443.13;5055647;28;20434;-63
2021/09/09 10:46:48;;;;;;;;;;;;;;;20.82;66.67;99444.75;5055946;28;19928;-63
2021/09/09 10:49:32;;;;;;;;;;;;;;;20.84;66.75;99439.41;5056817;28;19928;-65
2021/09/09 10:52:18;;;;;;;;;;;;;;;20.86;66.64;99447.28;5069806;28;19927;-64
2021/09/09 10:55:11;;;;;;;;;;;;;;;20.87;66.84;99447.19;5056459;28;19927;-63
2021/09/09 10:58:14;;;;;;;;;;;;;;;20.89;66.71;99445.38;5055292;28;19942;-64
2021/09/09 11:01:09;;;;;;;;;;;;;;;20.90;66.77;99438.31;5056433;28;19991;-63
2021/09/09 11:03:55;;;;;;;;;;;;;;;20.91;66.87;99445.31;5055984;28;20402;-62
2021/09/09 11:06:39;;;;;;;;;;;;;;;20.91;66.81;99442.66;5055776;28;19927;-64
2021/09/09 11:09:27;;;;;;;;;;;;;;;20.92;66.91;99440.00;5056192;28;19974;-63
2021/09/09 11:12:16;;;;;;;;;;;;;;;20.93;66.96;99438.22;5055259;28;19928;-64
2021/09/09 11:15:06;;;;;;;;;;;;;;;20.96;67.03;99433.69;5055280;28;19966;-64
2021/09/09 11:17:57;;;;;;;;;;;;;;;20.98;67.18;99441.53;5055474;28;19927;-64
2021/09/09 11:20:49;;;;;;;;;;;;;;;20.99;67.05;99433.56;5053941;28;19986;-64
2021/09/09 11:23:42;;;;;;;;;;;;;;;21.02;67.18;99431.75;5054395;28;19940;-63
2021/09/09 11:26:26;;;;;;;;;;;;;;;21.02;67.08;99432.59;5055199;28;19928;-63
2021/09/09 11:29:22;;;;;;;;;;;;;;;21.03;67.10;99436.09;5055231;28;19927;-63
2021/09/09 11:32:07;;;;;;;;;;;;;;;21.02;67.22;99427.31;5054698;28;19969;-62
2021/09/09 11:35:04;;;;;;;;;;;;;;;21.00;67.21;99434.47;5054540;28;19928;-63
2021/09/09 11:37:53;;;;;;;;;;;;;;;21.01;67.13;99436.19;5054637;28;19927;-63
2021/09/09 11:40:43;;;;;;;;;;;;;;;21.02;67.07;99431.75;5055025;28;19927;-63
2021/09/09 11:43:30;;;;;;;;;;;;;;;21.04;67.24;99430.75;5054352;28;19928;-63
2021/09/09 11:46:22;;;;;;;;;;;;;;;21.05;67.29;99435.13;5054468;28;19986;-63
2021/09/09 11:49:19;;;;;;;;;;;;;;;21.07;67.27;99427.19;5055017;28;19928;-63
2021/09/09 11:52:07;;;;;;;;;;;;;;;21.07;67.63;99435.09;5054630;28;19928;-63
2021/09/09 11:54:51;;;;;;;;;;;;;;;21.08;67.35;99431.53;5054310;28;19935;-62
2021/09/09 11:57:40;;;;;;;;;;;;;;;21.08;67.45;99429.75;5055671;28;19928;-62
2021/09/09 12:00:35;;;;;;;;;;;;;;;21.08;67.40;99442.91;5054521;28;19928;-63
2021/09/09 12:03:27;;;;;;;;;;;;;;;21.09;67.44;99444.63;5055353;28;19979;-64
2021/09/09 12:06:22;;;;;;;;;;;;;;;21.09;67.48;99438.53;5053988;28;20391;-63
2021/09/09 12:09:06;;;;;;;;;;;;;;;21.08;67.59;99440.28;5054452;28;19942;-64
2021/09/09 12:12:03;;;;;;;;;;;;;;;21.09;67.54;99438.53;5054286;28;19977;-62
2021/09/09 12:14:55;;;;;;;;;;;;;;;21.09;67.54;99438.53;5054269;28;20338;-63
2021/09/09 12:17:40;;;;;;;;;;;;;;;21.09;67.59;99435.88;5054726;28;19931;-63
2021/09/09 12:20:28;;;;;;;;;;;;;;;21.12;67.73;99443.66;5055069;28;19928;-63
2021/09/09 12:23:17;;;;;;;;;;;;;;;21.14;67.69;99433.91;5039181;28;20012;-62
2021/09/09 12:26:15;;;;;;;;;;;;;;;21.17;67.77;99444.34;5053839;28;19927;-63
2021/09/09 12:29:02;;;;;;;;;;;;;;;21.19;67.86;99445.16;5053566;28;19974;-63
2021/09/09 12:31:52;;;;;;;;;;;;;;;21.20;67.83;99440.72;5052395;28;19928;-63
2021/09/09 12:34:36;;;;;;;;;;;;;;;21.19;67.79;99444.28;5053886;28;19928;-63
2021/09/09 12:37:23;;;;;;;;;;;;;;;21.18;67.84;99446.06;5053361;28;19971;-63
2021/09/09 12:40:08;;;;;;;;;;;;;;;21.18;67.99;99446.06;5053509;28;19935;-63
2021/09/09 12:43:00;;;;;;;;;;;;;;;21.19;67.90;99444.28;5053260;28;19928;-63
2021/09/09 12:45:47;;;;;;;;;;;;;;;21.18;67.92;99453.97;5053739;28;19927;-63
2021/09/09 12:48:34;;;;;;;;;;;;;;;21.16;68.14;99450.53;5067463;28;19928;-63
2021/09/09 12:51:19;;;;;;;;;;;;;;;21.17;68.06;99449.63;5053687;28;19928;-63
2021/09/09 12:54:06;;;;;;;;;;;;;;;21.14;68.08;99457.63;5053068;28;19966;-63
2021/09/09 12:56:56;;;;;;;;;;;;;;;21.14;68.05;99465.53;5054247;28;20024;-63
2021/09/09 12:59:41;;;;;;;;;;;;;;;21.12;68.23;99455.06;5053298;28;19927;-63
2021/09/09 13:02:32;;;;;;;;;;;;;;;21.09;68.13;99456.97;5053631;28;19975;-63
2021/09/09 13:05:21;;;;;;;;;;;;;;;21.10;68.21;99462.16;5053421;28;19962;-64
2021/09/09 13:08:11;;;;;;;;;;;;;;;21.07;68.48;99458.78;5053194;28;19927;-64
2021/09/09 13:11:04;;;;;;;;;;;;;;;21.06;68.38;99454.44;5053281;28;19927;-64
2021/09/09 13:13:51;;;;;;;;;;;;;;;21.06;68.44;99457.06;5053364;28;19944;-64
2021/09/09 13:16:39;;;;;;;;;;;;;;;21.04;68.50;99462.38;5054143;28;20058;-64
2021/09/09 13:19:30;;;;;;;;;;;;;;;21.03;68.51;99455.38;5053148;28;20387;-64
2021/09/09 13:22:23;;;;;;;;;;;;;;;21.04;68.46;99443.94;5052882;28;20016;-62
2021/09/09 13:25:10;;;;;;;;;;;;;;;21.04;68.46;99454.47;5053150;28;19928;-64
2021/09/09 13:27:57;;;;;;;;;;;;;;;21.06;68.73;99454.44;5052534;28;19927;-63
2021/09/09 13:30:49;;;;;;;;;;;;;;;21.06;68.65;99450.00;5052756;28;19974;-63
2021/09/09 13:33:39;;;;;;;;;;;;;;;21.07;68.54;99446.47;5052342;28;19928;-64
2021/09/09 13:36:26;;;;;;;;;;;;;;;21.07;68.73;99445.63;5052773;28;20420;-64
2021/09/09 13:39:13;;;;;;;;;;;;;;;21.08;68.60;99448.19;5053247;28;19971;-64
2021/09/09 13:41:57;;;;;;;;;;;;;;;21.10;68.75;99451.63;5054120;28;20016;-64
2021/09/09 13:44:43;;;;;;;;;;;;;;;21.10;68.76;99432.31;5056731;28;19971;-64
2021/09/09 13:47:33;;;;;;;;;;;;;;;21.11;68.39;99441.94;5057133;28;19935;-63
2021/09/09 13:50:26;;;;;;;;;;;;;;;21.10;68.76;99442.84;5056862;28;20350;-63
2021/09/09 13:53:15;;;;;;;;;;;;;;;21.11;68.80;99442.81;5056893;28;19943;-64
2021/09/09 13:56:05;;;;;;;;;;;;;;;21.13;68.71;99440.09;5056561;28;20448;-63
2021/09/09 13:58:57;;;;;;;;;;;;;;;21.11;68.77;99440.19;5056462;28;20023;-63
2021/09/09 14:01:43;;;;;;;;;;;;;;;21.11;68.90;99437.53;5056712;28;20342;-63
2021/09/09 14:04:27;;;;;;;;;;;;;;;21.10;68.87;99437.59;5057586;28;20327;-64
2021/09/09 14:07:11;;;;;;;;;;;;;;;21.08;68.95;99435.00;5056954;28;20011;-64
2021/09/09 14:09:55;;;;;;;;;;;;;;;21.08;68.88;99435.00;5057170;28;19927;-64
2021/09/09 14:12:47;;;;;;;;;;;;;;;21.07;69.02;99433.28;5057240;28;19987;-65
2021/09/09 14:15:32;;;;;;;;;;;;;;;21.08;69.07;99432.38;5056075;28;19943;-64
2021/09/09 14:18:21;;;;;;;;;;;;;;;21.07;69.03;99430.66;5056130;28;19927;-64
2021/09/09 14:21:16;;;;;;;;;;;;;;;21.09;69.15;99428.00;5056207;28;19978;-63
2021/09/09 14:24:05;;;;;;;;;;;;;;;21.11;69.08;99434.91;5055534;28;19928;-63
2021/09/09 14:26:55;;;;;;;;;;;;;;;21.09;69.13;99434.09;5056060;28;19946;-62
2021/09/09 14:29:45;;;;;;;;;;;;;;;21.10;69.08;99441.09;5056006;28;19932;-63
2021/09/09 14:32:30;;;;;;;;;;;;;;;21.11;69.12;99442.81;5056170;28;19975;-64
2021/09/09 14:35:14;;;;;;;;;;;;;;;21.11;69.07;99437.53;5057054;28;19979;-63
2021/09/09 14:38:00;;;;;;;;;;;;;;;21.13;69.13;99440.09;5057214;28;19928;-64
2021/09/09 14:40:52;;;;;;;;;;;;;;;21.14;69.17;99436.56;5057076;28;19928;-64
2021/09/09 14:43:40;;;;;;;;;;;;;;;21.14;69.23;99440.06;5055724;28;19927;-64
2021/09/09 14:46:29;;;;;;;;;;;;;;;21.15;69.05;99435.63;5055542;28;19928;-63